createdAt,value
2018-10-17T00:00:49.380Z,966.38
2018-10-17T00:01:49.369Z,966.38
2018-10-17T00:02:49.366Z,966.39
2018-10-17T00:03:49.372Z,966.38
2018-10-17T00:04:49.365Z,966.41
2018-10-17T00:05:49.375Z,966.42
2018-10-17T00:06:49.360Z,966.42
2018-10-17T00:07:49.364Z,966.44
2018-10-17T00:08:49.358Z,966.47
2018-10-17T00:09:49.379Z,966.40
2018-10-17T00:10:49.359Z,966.39
2018-10-17T00:11:49.357Z,966.40
2018-10-17T00:12:49.355Z,966.39
2018-10-17T00:13:49.356Z,966.40
2018-10-17T00:14:49.357Z,966.37
2018-10-17T00:15:49.351Z,966.41
2018-10-17T00:16:49.365Z,966.42
2018-10-17T00:17:49.360Z,966.42
2018-10-17T00:18:49.344Z,966.42
2018-10-17T00:19:49.343Z,966.43
2018-10-17T00:20:49.341Z,966.43
2018-10-17T00:21:49.344Z,966.42
2018-10-17T00:22:49.341Z,966.45
2018-10-17T00:23:49.339Z,966.43
2018-10-17T00:24:49.339Z,966.41
2018-10-17T00:25:49.354Z,966.37
2018-10-17T00:26:49.336Z,966.42
2018-10-17T00:27:49.336Z,966.42
2018-10-17T00:28:49.332Z,966.43
2018-10-17T00:29:49.331Z,966.42
2018-10-17T00:30:49.329Z,966.41
2018-10-17T00:31:49.328Z,966.43
2018-10-17T00:32:49.330Z,966.41
2018-10-17T00:33:49.325Z,966.46
2018-10-17T00:34:49.325Z,966.44
2018-10-17T00:35:49.324Z,966.43
2018-10-17T00:36:49.323Z,966.45
2018-10-17T00:37:49.320Z,966.45
2018-10-17T00:38:49.319Z,966.42
2018-10-17T00:39:49.317Z,966.40
2018-10-17T00:40:49.316Z,966.46
2018-10-17T00:41:49.313Z,966.43
2018-10-17T00:42:49.311Z,966.43
2018-10-17T00:43:49.309Z,966.47
2018-10-17T00:44:49.310Z,966.47
2018-10-17T00:45:49.311Z,966.43
2018-10-17T00:46:49.304Z,966.45
2018-10-17T00:47:49.306Z,966.42
2018-10-17T00:48:49.305Z,966.43
2018-10-17T00:49:49.303Z,966.42
2018-10-17T00:50:49.318Z,966.44
2018-10-17T00:51:49.300Z,966.39
2018-10-17T00:52:49.296Z,966.41
2018-10-17T00:53:49.302Z,966.41
2018-10-17T00:54:49.295Z,966.39
2018-10-17T00:55:49.295Z,966.40
2018-10-17T00:56:49.291Z,966.40
2018-10-17T00:57:49.297Z,966.44
2018-10-17T00:58:49.287Z,966.42
2018-10-17T00:59:49.287Z,966.41
2018-10-17T01:00:49.286Z,966.41
2018-10-17T01:01:49.284Z,966.36
2018-10-17T01:02:49.283Z,966.40
2018-10-17T01:03:49.284Z,966.42
2018-10-17T01:04:49.287Z,966.38
2018-10-17T01:05:49.280Z,966.36
2018-10-17T01:06:49.276Z,966.40
2018-10-17T01:07:49.297Z,966.36
2018-10-17T01:08:49.273Z,966.38
2018-10-17T01:09:49.273Z,966.35
2018-10-17T01:10:49.282Z,966.30
2018-10-17T01:11:49.269Z,966.32
2018-10-17T01:12:49.271Z,966.30
2018-10-17T01:13:49.266Z,966.31
2018-10-17T01:14:49.265Z,966.34
2018-10-17T01:15:49.265Z,966.34
2018-10-17T01:16:49.263Z,966.28
2018-10-17T01:17:49.269Z,966.32
2018-10-17T01:18:49.257Z,966.31
2018-10-17T01:19:49.258Z,966.30
2018-10-17T01:20:49.256Z,966.35
2018-10-17T01:21:49.255Z,966.33
2018-10-17T01:22:49.253Z,966.32
2018-10-17T01:23:49.251Z,966.32
2018-10-17T01:24:49.250Z,966.34
2018-10-17T01:25:49.248Z,966.33
2018-10-17T01:26:49.247Z,966.33
2018-10-17T01:27:49.302Z,966.32
2018-10-17T01:28:49.248Z,966.37
2018-10-17T01:29:49.243Z,966.37
2018-10-17T01:30:49.240Z,966.33
2018-10-17T01:31:49.239Z,966.36
2018-10-17T01:32:49.236Z,966.36
2018-10-17T01:33:49.464Z,966.39
2018-10-17T01:34:49.254Z,966.35
2018-10-17T01:35:49.235Z,966.37
2018-10-17T01:36:49.232Z,966.36
2018-10-17T01:37:49.228Z,966.33
2018-10-17T01:38:49.228Z,966.35
2018-10-17T01:39:49.225Z,966.33
2018-10-17T01:40:49.225Z,966.31
2018-10-17T01:41:49.222Z,966.29
2018-10-17T01:42:49.221Z,966.25
2018-10-17T01:43:49.219Z,966.26
2018-10-17T01:44:49.219Z,966.25
2018-10-17T01:45:49.215Z,966.25
2018-10-17T01:46:49.211Z,966.27
2018-10-17T01:47:49.217Z,966.26
2018-10-17T01:48:49.208Z,966.26
2018-10-17T01:49:49.207Z,966.27
2018-10-17T01:50:49.206Z,966.23
2018-10-17T01:51:49.205Z,966.25
2018-10-17T01:52:49.205Z,966.26
2018-10-17T01:53:49.221Z,966.20
2018-10-17T01:54:49.205Z,966.24
2018-10-17T01:55:49.204Z,966.20
2018-10-17T01:56:49.198Z,966.22
2018-10-17T01:57:49.195Z,966.17
2018-10-17T01:58:49.193Z,966.17
2018-10-17T01:59:49.192Z,966.13
2018-10-17T02:00:49.190Z,966.16
2018-10-17T02:01:49.189Z,966.16
2018-10-17T02:02:49.185Z,966.17
2018-10-17T02:03:49.194Z,966.13
2018-10-17T02:04:49.187Z,966.15
2018-10-17T02:05:49.187Z,966.15
2018-10-17T02:06:49.185Z,966.15
2018-10-17T02:07:49.176Z,966.15
2018-10-17T02:08:49.181Z,966.10
2018-10-17T02:09:49.173Z,966.11
2018-10-17T02:10:49.174Z,966.04
2018-10-17T02:11:49.171Z,966.08
2018-10-17T02:12:49.169Z,966.01
2018-10-17T02:13:49.167Z,966.06
2018-10-17T02:14:49.172Z,966.05
2018-10-17T02:15:49.165Z,966.05
2018-10-17T02:16:49.164Z,966.02
2018-10-17T02:17:49.159Z,966.03
2018-10-17T02:18:49.160Z,966.00
2018-10-17T02:19:49.163Z,966.03
2018-10-17T02:20:49.173Z,966.03
2018-10-17T02:21:49.156Z,965.99
2018-10-17T02:22:49.167Z,966.03
2018-10-17T02:23:49.150Z,966.04
2018-10-17T02:24:49.159Z,966.03
2018-10-17T02:25:49.156Z,966.02
2018-10-17T02:26:49.159Z,966.03
2018-10-17T02:27:49.141Z,966.00
2018-10-17T02:28:49.178Z,966.00
2018-10-17T02:29:49.169Z,966.02
2018-10-17T02:30:49.140Z,966.04
2018-10-17T02:31:49.141Z,966.05
2018-10-17T02:32:49.137Z,966.07
2018-10-17T02:33:49.135Z,966.06
2018-10-17T02:34:49.132Z,966.09
2018-10-17T02:35:49.135Z,966.07
2018-10-17T02:36:49.129Z,966.05
2018-10-17T02:37:49.129Z,966.01
2018-10-17T02:38:49.159Z,966.02
2018-10-17T02:39:49.281Z,966.06
2018-10-17T02:40:49.176Z,966.05
2018-10-17T02:41:49.122Z,966.04
2018-10-17T02:42:49.127Z,966.05
2018-10-17T02:43:49.117Z,966.06
2018-10-17T02:44:49.119Z,966.04
2018-10-17T02:45:49.114Z,966.01
2018-10-17T02:46:49.112Z,966.03
2018-10-17T02:47:49.131Z,966.04
2018-10-17T02:48:49.109Z,966.02
2018-10-17T02:49:49.102Z,966.04
2018-10-17T02:50:49.105Z,966.03
2018-10-17T02:51:49.104Z,966.01
2018-10-17T02:53:41.997Z,966.02
2018-10-17T02:54:41.984Z,966.01
2018-10-17T02:56:34.863Z,966.00
2018-10-17T02:57:34.882Z,965.99
2018-10-17T02:59:27.727Z,965.98
2018-10-17T03:00:27.712Z,965.98
2018-10-17T03:02:20.754Z,965.96
2018-10-17T03:03:20.575Z,965.99
2018-10-17T03:05:14.076Z,965.93
2018-10-17T03:06:13.997Z,965.99
2018-10-17T03:08:07.430Z,965.95
2018-10-17T03:09:07.433Z,965.95
2018-10-17T03:11:00.337Z,965.96
2018-10-17T03:12:00.288Z,965.95
2018-10-17T03:13:54.237Z,965.95
2018-10-17T03:14:54.154Z,965.97
2018-10-17T03:16:47.039Z,965.95
2018-10-17T03:17:47.032Z,965.96
2018-10-17T03:19:39.885Z,965.98
2018-10-17T03:20:39.915Z,965.92
2018-10-17T03:22:32.866Z,965.94
2018-10-17T03:23:32.747Z,965.92
2018-10-17T03:25:25.643Z,965.98
2018-10-17T03:26:25.615Z,965.92
2018-10-17T03:28:18.566Z,965.96
2018-10-17T03:29:18.943Z,965.97
2018-10-17T03:31:12.043Z,965.95
2018-10-17T03:32:11.914Z,965.99
2018-10-17T03:33:11.914Z,965.95
2018-10-17T03:34:11.884Z,965.96
2018-10-17T03:35:11.965Z,965.99
2018-10-17T03:36:11.885Z,965.99
2018-10-17T03:37:11.982Z,965.95
2018-10-17T03:38:11.885Z,966.00
2018-10-17T03:39:12.352Z,965.98
2018-10-17T03:40:12.049Z,966.00
2018-10-17T03:41:11.945Z,965.99
2018-10-17T03:42:11.871Z,966.00
2018-10-17T03:43:11.914Z,965.99
2018-10-17T03:44:11.870Z,965.94
2018-10-17T03:45:11.863Z,965.97
2018-10-17T03:46:11.864Z,965.93
2018-10-17T03:47:11.924Z,965.99
2018-10-17T03:48:11.861Z,965.98
2018-10-17T03:49:11.942Z,965.96
2018-10-17T03:50:11.856Z,965.99
2018-10-17T03:51:11.850Z,965.98
2018-10-17T03:52:11.879Z,965.95
2018-10-17T03:53:11.946Z,965.98
2018-10-17T03:54:11.851Z,965.95
2018-10-17T03:55:11.905Z,965.94
2018-10-17T03:56:11.848Z,965.95
2018-10-17T03:57:11.841Z,965.98
2018-10-17T03:58:11.836Z,965.99
2018-10-17T03:59:11.944Z,965.95
2018-10-17T04:00:11.834Z,965.99
2018-10-17T04:01:11.881Z,965.97
2018-10-17T04:02:11.846Z,966.01
2018-10-17T04:03:11.891Z,965.99
2018-10-17T04:04:11.834Z,966.01
2018-10-17T04:05:11.917Z,966.00
2018-10-17T04:06:11.819Z,966.02
2018-10-17T04:07:11.841Z,966.00
2018-10-17T04:08:11.816Z,966.02
2018-10-17T04:09:11.814Z,966.04
2018-10-17T04:10:11.812Z,966.05
2018-10-17T04:11:11.911Z,966.00
2018-10-17T04:12:11.809Z,966.01
2018-10-17T04:13:11.882Z,966.06
2018-10-17T04:14:11.806Z,966.06
2018-10-17T04:15:11.801Z,966.08
2018-10-17T04:16:11.804Z,966.07
2018-10-17T04:17:11.834Z,966.09
2018-10-17T04:18:11.811Z,966.06
2018-10-17T04:19:11.840Z,966.12
2018-10-17T04:20:11.801Z,966.13
2018-10-17T04:21:11.791Z,966.12
2018-10-17T04:22:11.791Z,966.12
2018-10-17T04:51:47.211Z,966.04
2018-10-17T04:52:47.036Z,966.03
2018-10-17T04:53:47.035Z,966.07
2018-10-17T04:54:47.055Z,966.06
2018-10-17T04:55:47.041Z,966.06
2018-10-17T04:56:47.017Z,966.09
2018-10-17T04:57:47.039Z,966.04
2018-10-17T04:58:47.010Z,966.10
2018-10-17T04:59:47.049Z,966.10
2018-10-17T05:00:47.008Z,966.09
2018-10-17T05:01:47.171Z,966.10
2018-10-17T05:02:46.991Z,966.06
2018-10-17T05:03:46.989Z,966.10
2018-10-17T05:04:47.012Z,966.03
2018-10-17T05:05:46.980Z,966.09
2018-10-17T05:06:47.008Z,966.08
2018-10-17T05:07:46.975Z,966.10
2018-10-17T05:08:46.971Z,966.10
2018-10-17T05:09:46.968Z,966.12
2018-10-17T05:10:46.985Z,966.13
2018-10-17T05:11:46.966Z,966.12
2018-10-17T05:12:46.960Z,966.11
2018-10-17T05:13:46.959Z,966.09
2018-10-17T05:14:46.952Z,966.09
2018-10-17T05:15:46.950Z,966.07
2018-10-17T05:16:46.949Z,966.08
2018-10-17T05:17:46.945Z,966.05
2018-10-17T05:18:46.944Z,966.09
2018-10-17T05:19:46.941Z,966.05
2018-10-17T05:20:46.938Z,966.03
2018-10-17T05:21:46.948Z,966.07
2018-10-17T05:22:46.929Z,966.07
2018-10-17T05:23:46.928Z,966.06
2018-10-17T05:24:46.928Z,966.05
2018-10-17T05:25:46.925Z,966.03
2018-10-17T05:26:46.923Z,966.04
2018-10-17T05:27:46.930Z,966.06
2018-10-17T05:28:46.922Z,966.04
2018-10-17T05:29:47.002Z,966.03
2018-10-17T05:30:46.914Z,966.07
2018-10-17T05:31:46.911Z,966.09
2018-10-17T05:32:46.909Z,966.11
2018-10-17T05:33:46.904Z,966.13
2018-10-17T05:34:46.904Z,966.09
2018-10-17T05:35:46.904Z,966.13
2018-10-17T05:36:46.896Z,966.12
2018-10-17T05:37:46.983Z,966.09
2018-10-17T05:38:46.901Z,966.13
2018-10-17T05:39:46.892Z,966.12
2018-10-17T05:40:46.890Z,966.14
2018-10-17T05:41:46.899Z,966.13
2018-10-17T05:42:46.884Z,966.13
2018-10-17T05:43:46.882Z,966.15
2018-10-17T05:44:46.889Z,966.17
2018-10-17T05:45:46.889Z,966.15
2018-10-17T05:46:46.876Z,966.16
2018-10-17T05:47:46.874Z,966.17
2018-10-17T05:48:46.868Z,966.15
2018-10-17T05:49:46.872Z,966.16
2018-10-17T05:50:46.870Z,966.17
2018-10-17T05:51:46.869Z,966.18
2018-10-17T05:52:46.861Z,966.21
2018-10-17T05:53:46.860Z,966.21
2018-10-17T05:54:46.861Z,966.20
2018-10-17T05:55:46.857Z,966.20
2018-10-17T05:56:46.892Z,966.22
2018-10-17T05:57:46.854Z,966.22
2018-10-17T05:58:46.851Z,966.19
2018-10-17T05:59:46.850Z,966.20
2018-10-17T06:00:46.849Z,966.24
2018-10-17T06:01:46.957Z,966.21
2018-10-17T06:02:46.844Z,966.22
2018-10-17T06:03:46.841Z,966.20
2018-10-17T06:04:46.838Z,966.19
2018-10-17T06:05:46.851Z,966.21
2018-10-17T06:06:46.835Z,966.18
2018-10-17T06:07:46.835Z,966.20
2018-10-17T06:08:46.835Z,966.20
2018-10-17T06:09:46.831Z,966.22
2018-10-17T06:10:46.847Z,966.23
2018-10-17T06:11:46.828Z,966.21
2018-10-17T06:12:46.830Z,966.22
2018-10-17T06:13:46.824Z,966.21
2018-10-17T06:14:46.821Z,966.22
2018-10-17T06:15:46.817Z,966.22
2018-10-17T06:16:46.890Z,966.25
2018-10-17T06:17:46.817Z,966.29
2018-10-17T06:18:46.819Z,966.25
2018-10-17T06:19:46.812Z,966.28
2018-10-17T06:20:46.815Z,966.28
2018-10-17T06:21:46.810Z,966.34
2018-10-17T06:22:46.807Z,966.38
2018-10-17T06:23:46.805Z,966.34
2018-10-17T06:24:46.805Z,966.38
2018-10-17T06:25:46.807Z,966.37
2018-10-17T06:26:46.804Z,966.48
2018-10-17T06:27:46.801Z,966.53
2018-10-17T06:28:46.800Z,966.47
2018-10-17T06:29:46.798Z,966.39
2018-10-17T06:30:46.805Z,966.38
2018-10-17T06:31:46.799Z,966.41
2018-10-17T06:32:46.794Z,966.44
2018-10-17T06:33:46.844Z,966.45
2018-10-17T06:34:46.861Z,966.37
2018-10-17T06:35:46.791Z,966.37
2018-10-17T06:36:46.793Z,966.35
2018-10-17T06:37:46.799Z,966.34
2018-10-17T06:38:46.789Z,966.37
2018-10-17T06:39:46.787Z,966.37
2018-10-17T06:40:46.791Z,966.33
2018-10-17T06:41:46.788Z,966.39
2018-10-17T06:42:46.787Z,966.38
2018-10-17T06:43:46.837Z,966.37
2018-10-17T06:44:46.786Z,966.37
2018-10-17T06:45:46.785Z,966.39
2018-10-17T06:46:46.786Z,966.46
2018-10-17T06:47:46.785Z,966.50
2018-10-17T06:48:46.784Z,966.52
2018-10-17T06:49:46.784Z,966.56
2018-10-17T06:50:46.781Z,966.55
2018-10-17T06:51:46.784Z,966.61
2018-10-17T06:52:46.781Z,966.58
2018-10-17T06:53:46.785Z,966.63
2018-10-17T06:54:46.791Z,966.66
2018-10-17T06:55:46.783Z,966.64
2018-10-17T06:56:46.784Z,966.66
2018-10-17T06:57:46.784Z,966.63
2018-10-17T06:58:46.784Z,966.69
2018-10-17T06:59:46.784Z,966.71
2018-10-17T07:00:46.787Z,966.66
2018-10-17T07:01:46.847Z,966.69
2018-10-17T07:02:46.783Z,966.73
2018-10-17T07:03:46.788Z,966.73
2018-10-17T07:04:46.790Z,966.74
2018-10-17T07:05:46.791Z,966.79
2018-10-17T07:06:46.797Z,966.86
2018-10-17T07:07:46.792Z,966.91
2018-10-17T07:08:46.801Z,966.98
2018-10-17T07:09:46.798Z,967.02
2018-10-17T07:10:46.798Z,967.00
2018-10-17T07:11:46.818Z,966.95
2018-10-17T07:12:46.805Z,966.92
2018-10-17T07:13:46.807Z,966.84
2018-10-17T07:14:46.809Z,966.78
2018-10-17T07:15:46.899Z,966.74
2018-10-17T07:16:46.812Z,966.72
2018-10-17T07:17:46.821Z,966.72
2018-10-17T07:18:46.828Z,966.77
2018-10-17T07:19:46.825Z,966.72
2018-10-17T07:20:46.830Z,966.69
2018-10-17T07:21:46.833Z,966.68
2018-10-17T07:22:46.842Z,966.61
2018-10-17T07:23:46.838Z,966.66
2018-10-17T07:24:46.846Z,966.63
2018-10-17T07:25:46.850Z,966.64
2018-10-17T07:26:46.855Z,966.59
2018-10-17T07:27:46.856Z,966.58
2018-10-17T07:28:46.898Z,966.59
2018-10-17T07:29:46.971Z,966.60
2018-10-17T07:30:46.865Z,966.58
2018-10-17T07:31:46.872Z,966.57
2018-10-17T07:32:46.876Z,966.58
2018-10-17T07:33:46.878Z,966.60
2018-10-17T07:34:46.882Z,966.53
2018-10-17T07:35:46.980Z,966.54
2018-10-17T07:36:46.889Z,966.56
2018-10-17T07:37:46.892Z,966.55
2018-10-17T07:38:46.899Z,966.55
2018-10-17T07:39:46.897Z,966.57
2018-10-17T07:40:46.899Z,966.58
2018-10-17T07:41:46.908Z,966.53
2018-10-17T07:42:46.908Z,966.57
2018-10-17T07:43:46.912Z,966.52
2018-10-17T07:44:46.915Z,966.57
2018-10-17T07:45:46.983Z,966.58
2018-10-17T07:46:46.921Z,966.60
2018-10-17T07:47:46.927Z,966.59
2018-10-17T07:48:46.926Z,966.60
2018-10-17T07:49:46.935Z,966.63
2018-10-17T07:50:46.935Z,966.64
2018-10-17T07:51:46.937Z,966.62
2018-10-17T07:52:46.940Z,966.62
2018-10-17T07:53:46.948Z,966.61
2018-10-17T07:54:46.944Z,966.62
2018-10-17T07:55:46.949Z,966.63
2018-10-17T07:56:46.952Z,966.61
2018-10-17T07:57:46.956Z,966.62
2018-10-17T07:58:46.963Z,966.63
2018-10-17T07:59:47.031Z,966.61
2018-10-17T08:00:46.967Z,966.69
2018-10-17T08:01:46.974Z,966.72
2018-10-17T08:02:46.970Z,966.65
2018-10-17T08:03:46.975Z,966.64
2018-10-17T08:04:46.975Z,966.64
2018-10-17T08:05:46.986Z,966.65
2018-10-17T08:06:47.077Z,966.63
2018-10-17T08:07:46.987Z,966.63
2018-10-17T08:08:46.991Z,966.60
2018-10-17T08:09:46.993Z,966.58
2018-10-17T08:10:46.998Z,966.58
2018-10-17T08:11:47.009Z,966.61
2018-10-17T08:12:47.004Z,966.64
2018-10-17T08:13:47.008Z,966.64
2018-10-17T08:14:47.011Z,966.62
2018-10-17T08:15:47.015Z,966.65
2018-10-17T08:16:47.021Z,966.64
2018-10-17T08:17:47.028Z,966.65
2018-10-17T08:18:47.026Z,966.66
2018-10-17T08:19:47.029Z,966.69
2018-10-17T08:20:47.034Z,966.81
2018-10-17T08:21:47.036Z,967.04
2018-10-17T08:22:47.041Z,967.11
2018-10-17T08:24:28.187Z,967.14
2018-10-17T08:25:28.115Z,967.21
2018-10-17T08:26:28.128Z,967.30
2018-10-17T08:27:28.133Z,967.22
2018-10-17T08:28:28.146Z,967.25
2018-10-17T08:29:28.138Z,967.28
2018-10-17T08:30:28.154Z,967.27
2018-10-17T08:31:28.154Z,967.31
2018-10-17T08:32:28.155Z,967.33
2018-10-17T08:33:28.160Z,967.36
2018-10-17T08:34:28.163Z,967.34
2018-10-17T08:35:28.316Z,967.37
2018-10-17T08:36:28.579Z,967.30
2018-10-17T08:37:28.673Z,967.34
2018-10-17T08:38:28.193Z,967.33
2018-10-17T08:39:28.195Z,967.34
2018-10-17T08:40:28.205Z,967.37
2018-10-17T08:41:28.214Z,967.37
2018-10-17T08:42:28.221Z,967.42
2018-10-17T08:43:28.225Z,967.41
2018-10-17T08:44:28.232Z,967.46
2018-10-17T08:45:28.244Z,967.48
2018-10-17T08:46:28.260Z,967.46
2018-10-17T08:47:28.263Z,967.46
2018-10-17T08:48:28.266Z,967.50
2018-10-17T08:49:28.276Z,967.40
2018-10-17T08:50:28.324Z,967.37
2018-10-17T08:51:28.293Z,967.43
2018-10-17T08:52:28.312Z,967.45
2018-10-17T08:53:28.310Z,967.46
2018-10-17T08:54:28.319Z,967.47
2018-10-17T08:55:28.334Z,967.45
2018-10-17T08:56:28.344Z,967.47
2018-10-17T08:57:28.354Z,967.48
2018-10-17T08:58:28.363Z,967.40
2018-10-17T08:59:28.375Z,967.31
2018-10-17T09:00:28.392Z,967.46
2018-10-17T09:01:28.398Z,967.55
2018-10-17T09:02:28.407Z,967.56
2018-10-17T09:03:28.418Z,967.59
2018-10-17T09:04:28.430Z,967.65
2018-10-17T09:05:28.439Z,967.23
2018-10-17T09:06:28.455Z,967.15
2018-10-17T09:07:28.462Z,967.25
2018-10-17T09:08:28.474Z,967.03
2018-10-17T09:09:28.484Z,967.00
2018-10-17T09:10:28.499Z,967.14
2018-10-17T09:11:28.508Z,967.11
2018-10-17T09:12:28.524Z,967.24
2018-10-17T09:13:28.584Z,966.98
2018-10-17T09:14:28.539Z,966.95
2018-10-17T09:15:28.552Z,967.01
2018-10-17T09:16:28.621Z,966.92
2018-10-17T09:17:28.572Z,966.95
2018-10-17T09:18:28.585Z,966.85
2018-10-17T09:19:28.662Z,966.87
2018-10-17T09:20:28.778Z,966.80
2018-10-17T09:21:29.021Z,966.78
2018-10-17T09:22:28.747Z,966.83
2018-10-17T09:23:28.626Z,966.73
2018-10-17T09:24:28.636Z,966.78
2018-10-17T09:25:28.677Z,966.73
2018-10-17T09:26:28.656Z,966.77
2018-10-17T09:27:28.665Z,966.72
2018-10-17T09:28:28.676Z,966.74
2018-10-17T09:29:28.683Z,966.75
2018-10-17T09:30:28.771Z,966.76
2018-10-17T09:31:28.689Z,966.82
2018-10-17T09:32:28.699Z,966.71
2018-10-17T09:33:28.706Z,966.69
2018-10-17T09:34:28.713Z,966.69
2018-10-17T09:35:28.767Z,966.68
2018-10-17T09:36:28.727Z,966.64
2018-10-17T09:37:28.732Z,966.66
2018-10-17T09:38:28.740Z,966.69
2018-10-17T09:39:28.753Z,966.66
2018-10-17T09:40:28.753Z,966.65
2018-10-17T09:41:28.760Z,966.66
2018-10-17T09:42:28.765Z,966.68
2018-10-17T09:43:28.770Z,966.76
2018-10-17T09:44:28.781Z,967.26
2018-10-17T09:45:28.782Z,967.31
2018-10-17T09:46:28.785Z,967.33
2018-10-17T09:47:28.796Z,967.33
2018-10-17T09:48:28.803Z,967.31
2018-10-17T09:49:28.809Z,967.32
2018-10-17T09:50:28.817Z,967.28
2018-10-17T09:51:28.823Z,967.34
2018-10-17T09:52:28.832Z,967.36
2018-10-17T09:53:28.977Z,967.29
2018-10-17T09:54:28.851Z,967.35
2018-10-17T09:55:28.861Z,967.34
2018-10-17T09:56:28.864Z,967.31
2018-10-17T09:57:28.880Z,967.31
2018-10-17T09:58:28.887Z,967.31
2018-10-17T09:59:28.904Z,967.29
2018-10-17T10:00:28.903Z,967.33
2018-10-17T10:01:28.916Z,967.21
2018-10-17T10:02:29.029Z,966.96
2018-10-17T10:03:28.938Z,966.94
2018-10-17T10:04:28.952Z,966.84
2018-10-17T10:05:28.971Z,966.86
2018-10-17T10:06:28.972Z,966.85
2018-10-17T10:07:28.985Z,966.80
2018-10-17T10:08:28.993Z,966.79
2018-10-17T10:09:29.008Z,966.85
2018-10-17T10:10:29.017Z,966.81
2018-10-17T10:11:29.038Z,966.79
2018-10-17T10:12:29.041Z,966.76
2018-10-17T10:13:29.049Z,966.73
2018-10-17T10:14:29.057Z,966.71
2018-10-17T10:15:29.077Z,966.68
2018-10-17T10:16:29.084Z,966.66
2018-10-17T10:17:29.103Z,966.62
2018-10-17T10:18:29.100Z,966.60
2018-10-17T10:19:29.109Z,966.60
2018-10-17T10:20:29.120Z,966.60
2018-10-17T10:21:29.125Z,966.59
2018-10-17T10:22:29.159Z,966.59
2018-10-17T10:23:29.203Z,966.57
2018-10-17T10:24:29.154Z,966.59
2018-10-17T10:25:29.164Z,966.56
2018-10-17T10:26:29.163Z,966.54
2018-10-17T10:27:29.178Z,966.52
2018-10-17T10:28:29.189Z,966.52
2018-10-17T10:29:29.194Z,966.53
2018-10-17T10:30:29.202Z,966.52
2018-10-17T10:31:29.245Z,966.53
2018-10-17T10:32:29.216Z,966.48
2018-10-17T10:33:29.223Z,966.44
2018-10-17T10:34:29.229Z,966.37
2018-10-17T10:35:29.236Z,966.39
2018-10-17T10:36:29.246Z,966.39
2018-10-17T10:37:29.252Z,966.36
2018-10-17T10:38:29.254Z,966.36
2018-10-17T10:39:29.275Z,966.33
2018-10-17T10:40:29.293Z,966.32
2018-10-17T10:41:29.315Z,966.34
2018-10-17T10:42:29.291Z,966.31
2018-10-17T10:43:29.289Z,966.31
2018-10-17T10:44:29.302Z,966.29
2018-10-17T10:45:29.322Z,966.27
2018-10-17T10:46:29.312Z,966.21
2018-10-17T10:47:29.320Z,966.18
2018-10-17T10:48:29.322Z,966.23
2018-10-17T10:49:29.347Z,966.23
2018-10-17T10:50:29.335Z,966.22
2018-10-17T10:51:29.426Z,966.23
2018-10-17T10:52:29.353Z,966.20
2018-10-17T10:53:29.362Z,966.21
2018-10-17T10:54:29.373Z,966.20
2018-10-17T10:55:29.365Z,966.18
2018-10-17T10:56:29.372Z,966.17
2018-10-17T10:57:29.387Z,966.14
2018-10-17T10:58:29.484Z,966.18
2018-10-17T10:59:29.658Z,966.17
2018-10-17T11:00:29.398Z,966.18
2018-10-17T11:01:29.403Z,966.13
2018-10-17T11:02:29.410Z,966.08
2018-10-17T11:03:29.417Z,966.14
2018-10-17T11:04:29.514Z,966.11
2018-10-17T11:05:29.592Z,966.12
2018-10-17T11:06:29.446Z,966.08
2018-10-17T11:07:29.444Z,966.10
2018-10-17T11:08:29.527Z,966.09
2018-10-17T11:09:29.455Z,966.12
2018-10-17T11:10:29.466Z,966.12
2018-10-17T11:11:29.496Z,966.15
2018-10-17T11:12:29.473Z,966.08
2018-10-17T11:13:29.477Z,966.10
2018-10-17T11:14:29.692Z,966.14
2018-10-17T11:15:29.539Z,966.15
2018-10-17T11:16:29.495Z,966.16
2018-10-17T11:17:29.508Z,966.16
2018-10-17T11:18:29.507Z,966.10
2018-10-17T11:19:29.515Z,966.11
2018-10-17T11:20:29.529Z,966.14
2018-10-17T11:21:29.529Z,966.11
2018-10-17T11:22:29.548Z,966.05
2018-10-17T11:23:29.543Z,966.07
2018-10-17T11:24:29.563Z,966.04
2018-10-17T11:25:30.235Z,966.06
2018-10-17T11:26:29.565Z,966.06
2018-10-17T11:27:29.564Z,966.05
2018-10-17T11:28:29.569Z,966.01
2018-10-17T11:29:29.646Z,966.04
2018-10-17T11:30:29.592Z,966.02
2018-10-17T11:31:29.648Z,966.03
2018-10-17T11:32:29.596Z,966.00
2018-10-17T11:33:29.605Z,966.04
2018-10-17T11:34:29.610Z,966.03
2018-10-17T11:35:29.617Z,966.03
2018-10-17T11:36:29.631Z,966.01
2018-10-17T11:37:29.655Z,966.05
2018-10-17T11:38:29.634Z,966.03
2018-10-17T11:39:29.639Z,966.03
2018-10-17T11:40:29.662Z,966.03
2018-10-17T11:41:29.665Z,966.01
2018-10-17T11:42:29.654Z,966.00
2018-10-17T11:43:29.666Z,965.99
2018-10-17T11:44:29.786Z,965.97
2018-10-17T11:45:29.698Z,965.98
2018-10-17T11:46:29.680Z,965.98
2018-10-17T11:47:29.689Z,965.95
2018-10-17T11:48:29.693Z,965.97
2018-10-17T11:49:29.698Z,965.94
2018-10-17T11:50:29.717Z,965.98
2018-10-17T11:51:29.710Z,965.93
2018-10-17T11:52:29.714Z,965.91
2018-10-17T11:53:29.720Z,965.94
2018-10-17T11:54:29.746Z,965.94
2018-10-17T11:55:29.736Z,965.97
2018-10-17T11:56:29.744Z,965.90
2018-10-17T11:57:29.743Z,965.91
2018-10-17T11:58:29.766Z,965.91
2018-10-17T11:59:29.777Z,965.90
2018-10-17T12:00:29.765Z,965.91
2018-10-17T12:01:29.769Z,965.90
2018-10-17T12:02:29.829Z,965.91
2018-10-17T12:03:29.850Z,965.86
2018-10-17T12:04:29.924Z,965.83
2018-10-17T12:05:30.185Z,965.83
2018-10-17T12:06:29.921Z,965.85
2018-10-17T12:07:29.828Z,965.82
2018-10-17T12:08:29.809Z,965.80
2018-10-17T12:09:29.935Z,965.80
2018-10-17T12:10:29.826Z,965.78
2018-10-17T12:11:29.868Z,965.76
2018-10-17T12:12:29.842Z,965.77
2018-10-17T12:13:29.857Z,965.78
2018-10-17T12:14:29.880Z,965.78
2018-10-17T12:15:29.968Z,965.74
2018-10-17T12:16:29.857Z,965.77
2018-10-17T12:17:29.863Z,965.74
2018-10-17T12:18:29.866Z,965.77
2018-10-17T12:19:29.877Z,965.79
2018-10-17T12:20:29.880Z,965.79
2018-10-17T12:21:29.894Z,965.82
2018-10-17T12:22:29.891Z,965.74
2018-10-17T12:23:30.751Z,965.78
2018-10-17T12:24:29.901Z,965.76
2018-10-17T12:25:30.010Z,965.80
2018-10-17T12:26:29.913Z,965.77
2018-10-17T12:27:29.918Z,965.79
2018-10-17T12:28:29.991Z,965.80
2018-10-17T12:29:29.984Z,965.77
2018-10-17T12:30:29.950Z,965.77
2018-10-17T12:31:29.941Z,965.76
2018-10-17T12:32:29.961Z,965.76
2018-10-17T12:33:29.950Z,965.76
2018-10-17T12:34:29.954Z,965.73
2018-10-17T12:35:29.962Z,965.73
2018-10-17T12:36:29.974Z,965.74
2018-10-17T12:37:29.972Z,965.76
2018-10-17T12:38:29.993Z,965.72
2018-10-17T12:39:30.091Z,965.74
2018-10-17T12:40:30.138Z,965.72
2018-10-17T12:41:30.080Z,965.70
2018-10-17T12:42:30.017Z,965.70
2018-10-17T12:43:30.003Z,965.68
2018-10-17T12:44:30.013Z,965.70
2018-10-17T12:45:30.022Z,965.67
2018-10-17T12:46:30.023Z,965.64
2018-10-17T12:47:30.031Z,965.66
2018-10-17T12:48:30.046Z,965.65
2018-10-17T12:49:30.037Z,965.62
2018-10-17T12:50:30.068Z,965.65
2018-10-17T12:51:30.048Z,965.61
2018-10-17T12:52:30.094Z,965.62
2018-10-17T12:53:30.126Z,965.62
2018-10-17T12:54:30.062Z,965.62
2018-10-17T12:55:30.072Z,965.61
2018-10-17T12:56:30.077Z,965.59
2018-10-17T12:57:30.087Z,965.62
2018-10-17T12:58:30.096Z,965.58
2018-10-17T12:59:30.124Z,965.56
2018-10-17T13:00:30.099Z,965.54
2018-10-17T13:01:30.102Z,965.54
2018-10-17T13:02:30.110Z,965.52
2018-10-17T13:03:30.116Z,965.57
2018-10-17T13:04:30.120Z,965.57
2018-10-17T13:05:30.125Z,965.56
2018-10-17T13:06:30.130Z,965.56
2018-10-17T13:07:30.136Z,965.56
2018-10-17T13:08:30.141Z,965.52
2018-10-17T13:09:30.149Z,965.53
2018-10-17T13:10:30.150Z,965.54